createdAt,value
2023-09-29T00:02:25.878Z,6.10
2023-09-29T00:04:53.475Z,6.15
2023-09-29T00:07:20.889Z,7.15
2023-09-29T00:09:48.804Z,6.47
2023-09-29T00:12:16.458Z,7.30
2023-09-29T00:14:43.749Z,6.63
2023-09-29T00:17:11.063Z,5.57
2023-09-29T00:19:38.344Z,5.80
2023-09-29T00:22:05.686Z,6.00
2023-09-29T00:24:33.020Z,6.57
2023-09-29T00:27:00.636Z,6.25
2023-09-29T00:29:28.083Z,5.25
2023-09-29T00:31:55.496Z,5.90
2023-09-29T00:34:22.760Z,5.30
2023-09-29T00:36:52.334Z,5.63
2023-09-29T00:39:19.605Z,5.82
2023-09-29T00:41:47.101Z,6.22
2023-09-29T00:44:14.891Z,5.60
2023-09-29T00:46:42.319Z,6.25
2023-09-29T00:49:10.399Z,5.97
2023-09-29T00:51:37.791Z,5.15
2023-09-29T00:54:09.648Z,5.53
2023-09-29T00:56:38.191Z,5.72
2023-09-29T00:59:07.325Z,5.00
2023-09-29T01:04:05.841Z,6.38
2023-09-29T01:06:33.244Z,5.75
2023-09-29T01:09:01.119Z,6.07
2023-09-29T01:11:28.446Z,5.70
2023-09-29T01:13:55.713Z,6.78
2023-09-29T01:16:22.995Z,5.00
2023-09-29T01:18:50.539Z,6.28
2023-09-29T01:21:18.038Z,5.82
2023-09-29T01:23:46.065Z,5.25
2023-09-29T01:26:13.834Z,5.87
2023-09-29T01:28:41.163Z,5.30
2023-09-29T01:31:09.576Z,5.43
2023-09-29T01:33:40.399Z,6.65
2023-09-29T01:36:07.877Z,6.95
2023-09-29T01:38:35.250Z,6.53
2023-09-29T01:41:02.565Z,5.40
2023-09-29T01:43:29.947Z,6.70
2023-09-29T01:45:57.695Z,6.25
2023-09-29T01:48:26.915Z,6.10
2023-09-29T01:50:54.489Z,5.90
2023-09-29T01:53:22.505Z,6.25
2023-09-29T01:55:50.989Z,5.72
2023-09-29T01:58:18.764Z,5.25
2023-09-29T02:00:47.512Z,5.63
2023-09-29T02:03:14.978Z,5.90
2023-09-29T02:05:42.372Z,5.80
2023-09-29T02:08:11.144Z,5.80
2023-09-29T02:10:38.659Z,5.70
2023-09-29T02:13:06.578Z,6.03
2023-09-29T02:15:35.620Z,5.20
2023-09-29T02:18:03.551Z,4.95
2023-09-29T02:20:31.319Z,6.22
2023-09-29T02:23:03.438Z,6.93
2023-09-29T02:25:31.561Z,5.53
2023-09-29T02:28:00.843Z,6.38
2023-09-29T02:30:29.308Z,5.38
2023-09-29T02:32:57.450Z,7.97
2023-09-29T02:35:25.409Z,6.05
2023-09-29T02:37:56.552Z,6.88
2023-09-29T02:40:24.954Z,6.65
2023-09-29T02:42:52.542Z,6.45
2023-09-29T02:45:20.199Z,6.68
2023-09-29T02:47:48.686Z,6.57
2023-09-29T02:50:17.299Z,5.18
2023-09-29T02:52:45.422Z,5.35
2023-09-29T02:55:14.389Z,5.82
2023-09-29T02:57:45.656Z,5.55
2023-09-29T03:00:17.159Z,5.75
2023-09-29T03:02:44.895Z,6.45
2023-09-29T03:05:16.174Z,6.00
2023-09-29T03:07:44.088Z,5.75
2023-09-29T03:10:14.239Z,6.82
2023-09-29T03:12:41.630Z,4.53
2023-09-29T03:15:10.158Z,5.93
2023-09-29T03:17:38.242Z,5.63
2023-09-29T03:20:13.597Z,4.70
2023-09-29T03:22:41.166Z,5.07
2023-09-29T03:25:10.863Z,4.80
2023-09-29T03:27:40.019Z,5.25
2023-09-29T03:32:35.873Z,4.80
2023-09-29T03:35:06.001Z,6.85
2023-09-29T03:37:37.826Z,5.40
2023-09-29T03:40:10.206Z,4.75
2023-09-29T03:42:38.514Z,4.95
2023-09-29T03:45:07.101Z,4.85
2023-09-29T03:47:35.889Z,5.07
2023-09-29T03:50:05.108Z,5.80
2023-09-29T03:52:33.437Z,4.75
2023-09-29T03:55:00.980Z,6.22
2023-09-29T03:57:28.247Z,5.93
2023-09-29T03:59:55.566Z,4.80
2023-09-29T04:02:22.913Z,5.70
2023-09-29T04:04:50.216Z,5.50
2023-09-29T04:07:17.523Z,4.97
2023-09-29T04:09:44.970Z,6.22
2023-09-29T04:12:12.943Z,5.30
2023-09-29T04:14:40.218Z,6.88
2023-09-29T04:17:07.597Z,5.45
2023-09-29T04:19:36.546Z,6.10
2023-09-29T04:24:31.085Z,5.10
2023-09-29T04:26:58.407Z,6.20
2023-09-29T04:29:25.753Z,5.72
2023-09-29T04:31:53.220Z,6.07
2023-09-29T04:34:20.501Z,5.68
2023-09-29T04:36:47.832Z,5.40
2023-09-29T04:39:16.435Z,5.45
2023-09-29T04:41:43.795Z,5.07
2023-09-29T04:44:11.175Z,5.68
2023-09-29T04:46:40.196Z,5.50
2023-09-29T04:51:37.705Z,4.85
2023-09-29T04:56:33.249Z,4.97
2023-09-29T04:59:00.622Z,4.50
2023-09-29T05:01:28.281Z,4.88
2023-09-29T05:03:55.963Z,4.68
2023-09-29T05:06:25.312Z,5.97
2023-09-29T05:08:53.062Z,4.95
2023-09-29T05:11:21.552Z,6.03
2023-09-29T05:13:49.429Z,4.40
2023-09-29T05:16:17.339Z,5.00
2023-09-29T05:18:44.869Z,5.80
2023-09-29T05:21:15.621Z,4.65
2023-09-29T05:23:46.389Z,5.63
2023-09-29T05:26:13.792Z,5.65
2023-09-29T05:28:41.070Z,5.03
2023-09-29T05:31:08.416Z,5.18
2023-09-29T05:33:35.889Z,4.95
2023-09-29T05:36:04.022Z,5.40
2023-09-29T05:38:31.597Z,4.70
2023-09-29T05:40:59.015Z,5.25
2023-09-29T05:43:27.309Z,5.05
2023-09-29T05:45:54.776Z,4.47
2023-09-29T05:48:22.140Z,5.15
2023-09-29T05:50:51.144Z,6.28
2023-09-29T05:55:46.526Z,4.97
2023-09-29T05:58:14.159Z,4.90
2023-09-29T06:00:42.278Z,4.85
2023-09-29T06:03:10.459Z,4.70
2023-09-29T06:05:38.015Z,5.45
2023-09-29T06:08:05.638Z,5.40
2023-09-29T06:10:33.151Z,4.70
2023-09-29T06:13:04.389Z,4.90
2023-09-29T06:15:32.593Z,4.60
2023-09-29T06:17:59.987Z,4.53
2023-09-29T06:20:27.410Z,3.97
2023-09-29T06:22:54.817Z,4.63
2023-09-29T06:25:22.103Z,3.88
2023-09-29T06:27:49.457Z,5.63
2023-09-29T06:30:16.867Z,4.43
2023-09-29T06:32:44.548Z,5.07
2023-09-29T06:35:15.948Z,5.30
2023-09-29T06:37:43.339Z,5.00
2023-09-29T06:40:11.745Z,4.32
2023-09-29T06:42:42.235Z,4.47
2023-09-29T06:45:10.984Z,4.07
2023-09-29T06:47:38.588Z,4.25
2023-09-29T06:50:06.104Z,4.47
2023-09-29T06:52:33.455Z,4.60
2023-09-29T06:55:00.874Z,5.43
2023-09-29T06:57:28.412Z,4.60
2023-09-29T06:59:55.958Z,4.55
2023-09-29T07:02:23.351Z,4.65
2023-09-29T07:04:51.006Z,4.95
2023-09-29T07:07:18.375Z,5.43
2023-09-29T07:09:45.654Z,4.85
2023-09-29T07:12:13.085Z,5.13
2023-09-29T07:14:40.408Z,4.63
2023-09-29T07:17:07.790Z,4.72
2023-09-29T07:19:45.399Z,5.80
2023-09-29T07:22:13.607Z,4.18
2023-09-29T07:24:42.837Z,5.35
2023-09-29T07:27:10.502Z,4.45
2023-09-29T07:29:37.860Z,5.13
2023-09-29T07:32:05.269Z,4.63
2023-09-29T07:34:32.813Z,4.68
2023-09-29T07:37:00.132Z,4.80
2023-09-29T07:39:27.544Z,4.72
2023-09-29T07:41:55.350Z,5.07
2023-09-29T07:44:25.795Z,4.47
2023-09-29T07:46:54.596Z,5.25
2023-09-29T07:49:23.068Z,5.10
2023-09-29T07:51:50.891Z,4.93
2023-09-29T07:54:18.559Z,4.63
2023-09-29T07:56:51.791Z,5.07
2023-09-29T07:59:20.196Z,5.35
2023-09-29T08:01:50.749Z,6.75
2023-09-29T08:04:18.997Z,5.40
2023-09-29T08:06:46.663Z,5.28
2023-09-29T08:09:14.128Z,4.43
2023-09-29T08:11:42.393Z,4.95
2023-09-29T08:14:10.030Z,6.05
2023-09-29T08:16:37.519Z,5.13
2023-09-29T08:19:06.182Z,4.45
2023-09-29T08:21:36.605Z,5.10
2023-09-29T08:24:04.242Z,6.47
2023-09-29T08:26:32.510Z,4.80
2023-09-29T08:29:04.313Z,4.80
2023-09-29T08:31:31.674Z,4.45
2023-09-29T08:33:59.003Z,4.28
2023-09-29T08:36:26.661Z,5.18
2023-09-29T08:38:54.929Z,5.45
2023-09-29T08:41:30.111Z,5.50
2023-09-29T08:44:06.817Z,5.15
2023-09-29T08:46:38.562Z,5.93
2023-09-29T08:49:06.449Z,5.63
2023-09-29T08:51:34.783Z,5.75
2023-09-29T08:54:04.306Z,5.85
2023-09-29T08:56:32.449Z,6.35
2023-09-29T08:59:01.615Z,6.20
2023-09-29T09:01:29.055Z,4.63
2023-09-29T09:03:56.581Z,5.45
2023-09-29T09:06:25.517Z,4.85
2023-09-29T09:08:53.391Z,5.45
2023-09-29T09:11:21.091Z,4.60
2023-09-29T09:14:04.908Z,4.80
2023-09-29T09:16:33.412Z,4.88
2023-09-29T09:19:14.049Z,5.05
2023-09-29T09:21:42.355Z,4.95
2023-09-29T09:24:20.159Z,5.63
2023-09-29T09:26:48.032Z,3.80
2023-09-29T09:29:17.775Z,4.60
2023-09-29T09:31:46.041Z,4.28
2023-09-29T09:34:16.524Z,4.93
2023-09-29T09:36:53.765Z,3.78
2023-09-29T09:39:25.085Z,4.43
2023-09-29T09:41:53.791Z,4.82
2023-09-29T09:44:22.007Z,5.35
2023-09-29T09:47:01.279Z,5.45
2023-09-29T09:49:37.461Z,5.95
2023-09-29T09:52:09.076Z,5.07
2023-09-29T09:54:41.474Z,5.95
2023-09-29T09:57:12.136Z,4.63
2023-09-29T09:59:40.794Z,4.85
2023-09-29T10:02:09.105Z,4.88
2023-09-29T10:04:39.624Z,4.80
2023-09-29T10:07:07.660Z,4.78
2023-09-29T10:09:49.349Z,6.03
2023-09-29T10:12:30.034Z,5.93
2023-09-29T10:14:57.585Z,5.30
2023-09-29T10:17:24.962Z,5.85
2023-09-29T10:19:52.807Z,6.45
2023-09-29T10:22:28.803Z,8.60
2023-09-29T10:24:58.190Z,7.80
2023-09-29T10:27:33.672Z,6.88
2023-09-29T10:30:12.493Z,7.25
2023-09-29T10:32:42.799Z,7.15
2023-09-29T10:35:19.754Z,7.40
2023-09-29T10:37:51.029Z,6.38
2023-09-29T10:40:22.170Z,6.45
2023-09-29T10:42:49.702Z,5.43
2023-09-29T10:45:29.307Z,4.32
2023-09-29T10:48:02.124Z,3.63
2023-09-29T10:50:29.895Z,2.50
2023-09-29T10:52:57.745Z,3.17
2023-09-29T10:55:25.145Z,2.10
2023-09-29T10:57:52.702Z,1.60
2023-09-29T11:00:20.830Z,1.88
2023-09-29T11:02:50.472Z,1.55
2023-09-29T11:05:18.395Z,1.45
2023-09-29T11:07:52.654Z,1.90
2023-09-29T11:10:20.538Z,1.70
2023-09-29T11:12:48.973Z,1.90
2023-09-29T11:15:17.079Z,2.28
2023-09-29T11:17:48.883Z,1.55
2023-09-29T11:20:18.031Z,1.75
2023-09-29T11:22:46.843Z,2.33
2023-09-29T11:27:41.549Z,3.13
2023-09-29T11:30:10.214Z,1.67
2023-09-29T11:32:40.627Z,1.90
2023-09-29T11:35:14.734Z,2.03
2023-09-29T11:37:43.769Z,1.80
2023-09-29T11:42:42.520Z,1.30
2023-09-29T11:45:10.237Z,2.25
2023-09-29T11:47:43.607Z,1.50
2023-09-29T11:50:11.052Z,1.70
2023-09-29T11:52:40.709Z,1.90
2023-09-29T11:55:15.037Z,1.60
2023-09-29T11:57:42.481Z,2.00
2023-09-29T12:00:10.766Z,1.85
2023-09-29T12:02:38.908Z,1.70
2023-09-29T12:05:07.307Z,1.90
2023-09-29T12:07:36.643Z,1.63
2023-09-29T12:10:04.541Z,2.17
2023-09-29T12:12:33.543Z,2.30
2023-09-29T12:15:01.170Z,2.95
2023-09-29T12:17:28.717Z,1.70
2023-09-29T12:19:56.287Z,2.60
2023-09-29T12:22:23.710Z,2.28
2023-09-29T12:24:51.224Z,2.65
2023-09-29T12:27:18.829Z,2.25
2023-09-29T12:29:46.339Z,2.03
2023-09-29T12:32:13.899Z,1.90
2023-09-29T12:34:43.239Z,2.33
2023-09-29T12:37:10.671Z,2.30
2023-09-29T12:39:40.571Z,2.72
2023-09-29T12:42:09.565Z,2.60
2023-09-29T12:44:37.091Z,2.92
2023-09-29T12:47:04.924Z,2.92
2023-09-29T12:49:32.400Z,2.42
2023-09-29T12:52:02.043Z,3.70
2023-09-29T12:54:30.132Z,2.78
2023-09-29T12:57:02.274Z,3.50
2023-09-29T12:59:30.971Z,5.00
2023-09-29T13:01:58.441Z,4.35
2023-09-29T13:04:30.344Z,2.97
2023-09-29T13:06:58.398Z,3.53
2023-09-29T13:09:25.826Z,3.28
2023-09-29T13:11:53.775Z,3.47
2023-09-29T13:14:21.788Z,3.85
2023-09-29T13:16:49.110Z,2.83
2023-09-29T13:19:16.411Z,4.07
2023-09-29T13:21:43.788Z,3.10
2023-09-29T13:24:11.713Z,2.80
2023-09-29T13:26:41.200Z,2.90
2023-09-29T13:29:09.132Z,3.65
2023-09-29T13:31:37.248Z,3.00
2023-09-29T13:34:04.954Z,2.75
2023-09-29T13:36:32.673Z,2.33
2023-09-29T13:39:00.750Z,3.00
2023-09-29T13:41:29.925Z,3.03
2023-09-29T13:43:57.968Z,3.28
2023-09-29T13:46:26.181Z,3.25
2023-09-29T13:48:53.652Z,2.83
2023-09-29T13:51:21.156Z,3.17
2023-09-29T13:53:49.295Z,2.70
2023-09-29T13:58:44.608Z,2.42
2023-09-29T14:01:12.805Z,3.15
2023-09-29T14:03:40.620Z,2.50
2023-09-29T14:06:08.540Z,2.10
2023-09-29T14:08:35.948Z,2.00
2023-09-29T14:11:03.306Z,2.50
2023-09-29T14:13:30.619Z,1.83
2023-09-29T14:15:58.011Z,2.60
2023-09-29T14:18:25.413Z,1.70
2023-09-29T14:20:53.038Z,1.63
2023-09-29T14:23:20.396Z,2.28
2023-09-29T14:25:48.592Z,2.58
2023-09-29T14:28:15.907Z,2.67
2023-09-29T14:30:43.167Z,2.72
2023-09-29T14:33:10.639Z,2.90
2023-09-29T14:35:48.655Z,3.10
2023-09-29T14:38:17.342Z,3.30
2023-09-29T14:40:44.646Z,4.10
2023-09-29T14:43:11.904Z,4.55
2023-09-29T14:45:39.198Z,4.47
2023-09-29T14:48:08.410Z,4.82
2023-09-29T14:50:39.285Z,4.82
2023-09-29T14:53:06.578Z,5.95
2023-09-29T14:55:37.959Z,5.78
2023-09-29T14:58:05.520Z,4.75
2023-09-29T15:00:33.111Z,4.93
2023-09-29T15:03:00.572Z,5.63
2023-09-29T15:05:28.156Z,4.25
2023-09-29T15:07:55.482Z,4.35
2023-09-29T15:10:22.816Z,4.78
2023-09-29T15:12:50.178Z,4.95
2023-09-29T15:15:17.895Z,4.82
2023-09-29T15:17:45.231Z,5.72
2023-09-29T15:20:16.308Z,4.00
2023-09-29T15:22:43.769Z,4.50
2023-09-29T15:25:11.647Z,5.18
2023-09-29T15:27:38.947Z,4.30
2023-09-29T15:30:06.751Z,4.28
2023-09-29T15:32:34.255Z,3.42
2023-09-29T15:35:02.662Z,3.50
2023-09-29T15:37:29.987Z,5.38
2023-09-29T15:39:57.294Z,3.47
2023-09-29T15:42:25.040Z,4.45
2023-09-29T15:44:54.352Z,4.57
2023-09-29T15:47:26.629Z,3.70
2023-09-29T15:49:54.292Z,3.22
2023-09-29T15:52:21.654Z,3.95
2023-09-29T15:54:48.962Z,4.47
2023-09-29T15:57:16.343Z,3.42
2023-09-29T15:59:44.778Z,3.15
2023-09-29T16:02:24.047Z,3.15
2023-09-29T16:04:54.597Z,3.38
2023-09-29T16:07:23.631Z,4.47
2023-09-29T16:09:53.359Z,3.17
2023-09-29T16:12:20.674Z,3.55
2023-09-29T16:14:48.079Z,3.40
2023-09-29T16:17:15.896Z,3.95
2023-09-29T16:19:43.218Z,4.13
2023-09-29T16:22:10.893Z,4.47
2023-09-29T16:24:43.527Z,3.20
2023-09-29T16:27:10.906Z,3.03
2023-09-29T16:29:38.951Z,4.28
2023-09-29T16:32:25.172Z,3.00
2023-09-29T16:35:00.528Z,3.70
2023-09-29T16:37:27.962Z,3.83
2023-09-29T16:39:55.621Z,4.05
2023-09-29T16:42:23.548Z,3.75
2023-09-29T16:44:52.401Z,2.85
2023-09-29T16:47:22.810Z,3.70
2023-09-29T16:49:51.836Z,3.30
2023-09-29T16:54:46.756Z,3.03
2023-09-29T16:57:14.370Z,3.50
2023-09-29T16:59:42.141Z,3.20
2023-09-29T17:02:09.901Z,3.67
2023-09-29T17:04:37.249Z,3.08
2023-09-29T17:07:04.746Z,3.85
2023-09-29T17:09:32.333Z,4.32
2023-09-29T17:12:00.719Z,3.28
2023-09-29T17:14:28.506Z,3.00
2023-09-29T17:16:56.414Z,2.92
2023-09-29T17:19:23.932Z,3.70
2023-09-29T17:21:51.197Z,2.92
2023-09-29T17:24:18.476Z,3.47
2023-09-29T17:26:45.835Z,3.58
2023-09-29T17:29:13.327Z,3.10
2023-09-29T17:31:40.815Z,4.05
2023-09-29T17:34:08.270Z,3.70
2023-09-29T17:36:35.579Z,3.40
2023-09-29T17:39:03.046Z,3.30
2023-09-29T17:41:30.353Z,3.42
2023-09-29T17:43:57.870Z,2.85
2023-09-29T17:46:25.340Z,3.83
2023-09-29T17:48:52.637Z,3.50
2023-09-29T17:51:20.151Z,3.80
2023-09-29T17:53:48.271Z,4.07
2023-09-29T17:56:15.729Z,4.13
2023-09-29T17:58:43.047Z,3.83
2023-09-29T18:01:13.890Z,4.32
2023-09-29T18:03:42.791Z,4.22
2023-09-29T18:06:11.616Z,4.32
2023-09-29T18:08:41.412Z,3.83
2023-09-29T18:11:08.783Z,4.05
2023-09-29T18:13:36.124Z,3.30
2023-09-29T18:16:06.246Z,3.75
2023-09-29T18:18:36.592Z,4.28
2023-09-29T18:21:03.974Z,3.05
2023-09-29T18:23:31.394Z,3.90
2023-09-29T18:25:58.725Z,3.30
2023-09-29T18:28:26.103Z,4.10
2023-09-29T18:30:53.547Z,6.22
2023-09-29T18:33:20.948Z,4.45
2023-09-29T18:35:48.280Z,4.78
2023-09-29T18:38:15.614Z,3.33
2023-09-29T18:40:42.993Z,3.40
2023-09-29T18:43:10.259Z,3.55
2023-09-29T18:45:37.842Z,3.20
2023-09-29T18:48:05.502Z,4.43
2023-09-29T18:50:35.987Z,3.70
2023-09-29T18:53:03.648Z,4.20
2023-09-29T18:55:31.141Z,4.53
2023-09-29T18:57:58.492Z,3.70
2023-09-29T19:00:26.883Z,3.78
2023-09-29T19:02:55.310Z,5.53
2023-09-29T19:05:22.979Z,4.20
2023-09-29T19:07:50.286Z,4.63
2023-09-29T19:10:18.396Z,4.60
2023-09-29T19:12:45.810Z,5.07
2023-09-29T19:15:13.295Z,4.60
2023-09-29T19:17:40.770Z,5.03
2023-09-29T19:20:08.922Z,5.82
2023-09-29T19:22:36.314Z,4.60
2023-09-29T19:25:03.664Z,4.45
2023-09-29T19:27:32.391Z,6.45
2023-09-29T19:30:01.697Z,6.13
2023-09-29T19:32:29.874Z,4.97
2023-09-29T19:34:57.733Z,5.07
2023-09-29T19:37:25.484Z,4.57
2023-09-29T19:39:52.835Z,5.22
2023-09-29T19:42:22.601Z,5.72
2023-09-29T19:44:50.384Z,5.40
2023-09-29T19:47:17.707Z,6.15
2023-09-29T19:49:45.291Z,8.88
2023-09-29T19:52:12.765Z,7.03
2023-09-29T19:54:40.827Z,7.60
2023-09-29T19:57:08.646Z,8.20
2023-09-29T19:59:35.947Z,7.97
2023-09-29T20:02:04.027Z,6.75
2023-09-29T20:04:31.884Z,7.13
2023-09-29T20:06:59.916Z,7.97
2023-09-29T20:09:27.772Z,8.65
2023-09-29T20:11:57.427Z,11.73
2023-09-29T20:14:25.000Z,7.18
2023-09-29T20:16:52.702Z,7.30
2023-09-29T20:19:20.459Z,9.15
2023-09-29T20:21:47.834Z,9.32
2023-09-29T20:24:15.160Z,8.18
2023-09-29T20:26:42.485Z,9.60
2023-09-29T20:29:10.380Z,10.52
2023-09-29T20:31:37.858Z,8.93
2023-09-29T20:34:05.715Z,8.60
2023-09-29T20:36:33.270Z,8.45
2023-09-29T20:39:06.119Z,7.10
2023-09-29T20:41:33.959Z,8.57
2023-09-29T20:44:01.559Z,7.47
2023-09-29T20:46:29.005Z,6.72
2023-09-29T20:48:56.434Z,6.90
2023-09-29T20:51:23.812Z,5.80
2023-09-29T20:53:52.031Z,6.18
2023-09-29T20:56:19.698Z,6.20
2023-09-29T20:58:47.202Z,6.30
2023-09-29T21:01:15.319Z,5.63
2023-09-29T21:03:44.643Z,6.93
2023-09-29T21:06:12.047Z,6.75
2023-09-29T21:08:39.384Z,6.65
2023-09-29T21:11:06.736Z,7.82
2023-09-29T21:13:34.138Z,7.15
2023-09-29T21:16:01.776Z,6.65
2023-09-29T21:18:29.238Z,7.00
2023-09-29T21:20:56.591Z,6.57
2023-09-29T21:23:23.929Z,6.60
2023-09-29T21:25:51.262Z,6.90
2023-09-29T21:28:18.564Z,6.63
2023-09-29T21:30:46.169Z,6.68
2023-09-29T21:33:13.632Z,7.13
2023-09-29T21:35:41.116Z,6.40
2023-09-29T21:38:08.466Z,6.65
2023-09-29T21:40:35.825Z,7.65
2023-09-29T21:43:03.100Z,6.60
2023-09-29T21:45:30.550Z,6.60
2023-09-29T21:47:58.059Z,6.93
2023-09-29T21:50:25.731Z,6.40
2023-09-29T21:52:53.077Z,6.50
2023-09-29T21:55:20.413Z,7.18
2023-09-29T21:57:47.883Z,6.28
2023-09-29T22:00:17.344Z,7.30
2023-09-29T22:02:45.463Z,8.70
2023-09-29T22:05:16.742Z,7.93
2023-09-29T22:07:44.419Z,7.18
2023-09-29T22:10:15.945Z,7.25
2023-09-29T22:12:46.313Z,8.25
2023-09-29T22:15:16.929Z,7.57
2023-09-29T22:17:45.144Z,6.60
2023-09-29T22:20:13.198Z,7.43
2023-09-29T22:22:40.621Z,8.00
2023-09-29T22:25:08.398Z,8.05
2023-09-29T22:27:36.778Z,6.97
2023-09-29T22:30:04.752Z,6.80
2023-09-29T22:32:32.287Z,7.72
2023-09-29T22:34:59.741Z,7.72
2023-09-29T22:37:27.040Z,6.90
2023-09-29T22:39:54.323Z,6.85
2023-09-29T22:42:22.656Z,8.23
2023-09-29T22:44:50.440Z,7.03
2023-09-29T22:47:17.916Z,6.88
2023-09-29T22:49:45.604Z,7.22
2023-09-29T22:52:13.709Z,7.30
2023-09-29T22:54:41.245Z,7.40
2023-09-29T22:57:09.560Z,7.35
2023-09-29T22:59:37.041Z,7.07
2023-09-29T23:02:04.469Z,7.15
2023-09-29T23:04:31.816Z,7.25
2023-09-29T23:06:59.123Z,7.43
2023-09-29T23:09:29.193Z,7.78
2023-09-29T23:11:59.229Z,7.10
2023-09-29T23:14:27.531Z,8.13
2023-09-29T23:16:55.380Z,7.70
2023-09-29T23:19:22.699Z,8.80
2023-09-29T23:21:51.711Z,8.07
2023-09-29T23:26:49.284Z,8.05
2023-09-29T23:29:16.795Z,9.23
2023-09-29T23:31:44.168Z,8.63
2023-09-29T23:34:11.941Z,8.25
2023-09-29T23:36:39.310Z,8.48
2023-09-29T23:39:12.234Z,7.82
2023-09-29T23:41:41.359Z,8.88
2023-09-29T23:44:09.368Z,8.02
2023-09-29T23:46:38.605Z,10.80
2023-09-29T23:51:35.442Z,10.18
2023-09-29T23:54:04.135Z,9.55
2023-09-29T23:56:31.488Z,9.93
2023-09-29T23:58:59.977Z,9.63
